Roanoke, VA

12:52 PM EDT on September 18, 2014 (GMT -0400)
Virginia Tech | Change Station
CLOSE
Current Station
Airport
Location: Blacksburg,
Elevation: 2133 ft
Nearby Weather Stations

Elev 2133 ft 37.21 °N, 80.41 °W | Updated 17 minutes ago

Partly Cloudy
Partly Cloudy
70 °F
Feels Like 70 °F
N
4
Wind Variable Wind from WNW

Today
High -- | Low -- °F
--% Chance of Precip.
Yesterday
High -- | Low -- °F
Precip. -- in
7:04 AM 7:22 PM
Waning Crescent, 26% visible
Pressure 30.09 in
Visibility 10.0 miles
Clouds Scattered Clouds 10000 ft
Dew Point 57 °F
Humidity 64%
Rainfall 0.00 in
Snow Depth Not available.
UV 7 out of 12
Pollen 5.80 out of 12
Air Quality Not available.
Flu Activity Not available.
METAR KBCB 181635Z AUTO 29003KT 10SM SCT100 21/14 A3009 RMK AO2 TSNO

More Conditions Fewer Conditions

Pressure 30.09 in
Visibility 10.0 miles
Clouds Scattered Clouds 10000 ft
Dew Point 57 °F
Humidity 64%
Rainfall 0.00 in
Snow Depth Not available.
UV 7 out of 12
Pollen 5.80 out of 12
Air Quality Not available.
Flu Activity Not available.
METAR KBCB 181635Z AUTO 29003KT 10SM SCT100 21/14 A3009 RMK AO2 TSNO

More Conditions Fewer Conditions

10-Day Weather Forecast

Almanac

Astronomy

Sep. 18, 2014 Rise Set
Actual Time 7:04 AM EDT 7:22 PM EDT
Civil Twilight 6:38 AM EDT 7:48 PM EDT
Nautical Twilight 6:07 AM EDT 8:19 PM EDT
Astronomical Twilight 5:36 AM EDT 8:50 PM EDT
Moon 1:59 AM EDT 4:08 PM EDT
Length of Visible Light 13h 10m
Length of Day
12h 18m
Tomorrow will be 2m 21s shorter.
Waning Crescent, 26% of the Moon is Illuminated
Today
Waning Crescent
Sep 24
New
Oct 1
First Quarter
Oct 8
Full
Oct 15
Last Quarter

Today's Extremes

State Highs State Lows

Community

WunderPhotos

Upload Photos

1,754,394 photos uploaded!

Nearby

Air Quality

  Air Quality AQ Index Pollutant
Yesterday Good
OZONE
Yesterday Good
PM2.5
Thursday Good
PM2.5

Snow Depth

Station Depth Elevation
No new snow has been reported.

Earthquake Activity

City Distance Mag. Time & Date
No recent earthquake activity has been reported nearby.
Minimum magnitude displayed is 2.5.

Coastal Water Temperatures

Place Temperature
No Stations Reporting

Nearby Weather Stations